Aviation Digital Data Service (ADDS)

Output produced by METARs form (0307 UTC 18 August 2017)
found at http://www.aviationweather.gov/adds/metars/
 
MHSC 180258Z VRB02KT 9999 FEW027 25/21 A3005 RMK AO2A LTG DSNT N SLP135 WND DATA ESTMD ALSTG/SLP ESTMD P02530206 52028 $
TAF MHSC 172105Z 1721/1903 02009KT 9999 FEW040 SCT060 QNH2995INS 
     BECMG 1802/1803 VRB06KT 9999 FEW055 SCT150 QNH3001INS 
     BECMG 1808/1809 VRB06KT 6000 BR SCT010 QNH3001INS 
     BECMG 1814/1815 02009KT 9999 NSW FEW045 SCT060 QNH2992INS TX33/1723Z TN20/1812Z
       
MHLC 180300Z 03007KT 9999 FEW028CB SCT200 26/24 Q1014 A2995 NOSIG
TAF MHLC 172225Z 1800/1824 02012KT 6000 -TSRA SCT022CB SCT080 TX33/1820Z TN22/1812Z 
     BECMG 1803/1805 00000KT 9999 NSW FEW025 SCT070 
     BECMG 1815/1817 01005KT FEW028TCU 
     BECMG 1819/1821 07010KT SCT026CB
       
MHRO 180300Z 05012KT 9999 FEW020CB 29/25 Q1015 A2997 NOSIG
TAF MHRO 172225Z 1800/1824 08012KT 7000 VCSH SCT018CB SCT080 TX32/1819Z TN27/1812Z 
     BECMG 1802/1804 9999 NSW FEW022
       
MHLM 180300Z 36006KT 9999 TS FEW025CB SCT080 26/25 Q1015 A2997 NOSIG
TAF MHLM 172225Z 1800/1824 35008KT 9999 FEW026CB TX33/1821Z TN23/1812Z 
     BECMG 1802/1804 20003KT 8000 VCSH SCT024CB SCT080 
     BECMG 1804/1806 9999 NSW FEW022 SCT080 
     BECMG 1815/1817 01012KT SCT028
       
MHTG 180300Z 09008KT 9999 FEW028CB SCT250 22/16 Q1020 A3012 NOSIG
TAF MHTG 172225Z 1800/1824 05008KT 9999 SCT028 SCT080 TX31/1820Z TN18/1812Z 
     BECMG 1804/1806 00000KT 
     BECMG 1810/1812 02006KT 8000 FEW007 SCT026 
     BECMG 1814/1816 9999 SCT030TCU
       
MHTE 180000Z 09008KT 9999 SCT026TCU SCT250 30/25 Q1012 TCU ALL HZ